sensor_id;sensor_type;location;lat;lon;timestamp;temperature;humidity
24103;DHT22;12278;53.058;9.028;2023-10-31T00:03:35;12.50;99.90
24103;DHT22;12278;53.058;9.028;2023-10-31T00:07:36;12.50;99.90
24103;DHT22;12278;53.058;9.028;2023-10-31T00:11:36;12.50;99.90
24103;DHT22;12278;53.058;9.028;2023-10-31T00:15:37;12.50;99.90
24103;DHT22;12278;53.058;9.028;2023-10-31T00:19:38;12.50;99.90
24103;DHT22;12278;53.058;9.028;2023-10-31T00:23:48;12.50;99.90
24103;DHT22;12278;53.058;9.028;2023-10-31T00:27:49;12.60;99.90
24103;DHT22;12278;53.058;9.028;2023-10-31T00:31:50;12.50;99.90
24103;DHT22;12278;53.058;9.028;2023-10-31T00:35:50;12.60;99.90
24103;DHT22;12278;53.058;9.028;2023-10-31T00:39:51;12.60;99.90
24103;DHT22;12278;53.058;9.028;2023-10-31T00:43:51;12.60;99.90
24103;DHT22;12278;53.058;9.028;2023-10-31T00:47:52;12.60;99.90
24103;DHT22;12278;53.058;9.028;2023-10-31T00:51:53;12.60;99.90
24103;DHT22;12278;53.058;9.028;2023-10-31T00:55:53;12.60;99.90
24103;DHT22;12278;53.058;9.028;2023-10-31T00:59:54;12.50;99.90
24103;DHT22;12278;53.058;9.028;2023-10-31T01:03:54;12.50;99.90
24103;DHT22;12278;53.058;9.028;2023-10-31T01:07:55;12.60;99.90
24103;DHT22;12278;53.058;9.028;2023-10-31T01:11:56;12.60;99.90
24103;DHT22;12278;53.058;9.028;2023-10-31T01:15:56;12.60;99.90
24103;DHT22;12278;53.058;9.028;2023-10-31T01:19:57;12.60;99.90
24103;DHT22;12278;53.058;9.028;2023-10-31T01:23:58;12.60;99.90
24103;DHT22;12278;53.058;9.028;2023-10-31T01:27:59;12.50;99.90
24103;DHT22;12278;53.058;9.028;2023-10-31T01:32:00;12.50;99.90
24103;DHT22;12278;53.058;9.028;2023-10-31T01:36:00;12.50;99.90
24103;DHT22;12278;53.058;9.028;2023-10-31T01:40:01;12.50;99.90
24103;DHT22;12278;53.058;9.028;2023-10-31T01:44:02;12.50;99.90
24103;DHT22;12278;53.058;9.028;2023-10-31T01:48:03;12.50;99.90
24103;DHT22;12278;53.058;9.028;2023-10-31T01:52:04;12.60;99.90
24103;DHT22;12278;53.058;9.028;2023-10-31T01:56:06;12.60;99.90
24103;DHT22;12278;53.058;9.028;2023-10-31T02:00:08;12.60;99.90
24103;DHT22;12278;53.058;9.028;2023-10-31T02:04:08;12.50;99.90
24103;DHT22;12278;53.058;9.028;2023-10-31T02:08:09;12.50;99.90
24103;DHT22;12278;53.058;9.028;2023-10-31T02:12:10;12.50;99.90
24103;DHT22;12278;53.058;9.028;2023-10-31T02:16:11;12.60;99.90
24103;DHT22;12278;53.058;9.028;2023-10-31T02:20:11;12.50;99.90
24103;DHT22;12278;53.058;9.028;2023-10-31T02:24:12;12.60;99.90
24103;DHT22;12278;53.058;9.028;2023-10-31T02:28:13;12.60;99.90
24103;DHT22;12278;53.058;9.028;2023-10-31T02:32:13;12.60;99.90
24103;DHT22;12278;53.058;9.028;2023-10-31T02:36:14;12.70;99.90
24103;DHT22;12278;53.058;9.028;2023-10-31T02:40:15;12.60;99.90
24103;DHT22;12278;53.058;9.028;2023-10-31T02:44:16;12.50;99.90
24103;DHT22;12278;53.058;9.028;2023-10-31T02:48:16;12.50;99.90
24103;DHT22;12278;53.058;9.028;2023-10-31T02:52:17;12.50;99.90
24103;DHT22;12278;53.058;9.028;2023-10-31T02:56:19;12.50;99.90
24103;DHT22;12278;53.058;9.028;2023-10-31T03:00:19;12.50;99.90
24103;DHT22;12278;53.058;9.028;2023-10-31T03:04:20;12.50;99.90
24103;DHT22;12278;53.058;9.028;2023-10-31T03:08:21;12.50;99.90
24103;DHT22;12278;53.058;9.028;2023-10-31T03:12:21;12.50;99.90
24103;DHT22;12278;53.058;9.028;2023-10-31T03:16:22;12.60;99.90
24103;DHT22;12278;53.058;9.028;2023-10-31T03:20:23;12.60;99.90
24103;DHT22;12278;53.058;9.028;2023-10-31T03:24:23;12.50;99.90
24103;DHT22;12278;53.058;9.028;2023-10-31T03:28:24;12.50;99.90
24103;DHT22;12278;53.058;9.028;2023-10-31T03:32:25;12.60;99.90
24103;DHT22;12278;53.058;9.028;2023-10-31T03:36:26;12.60;99.90
24103;DHT22;12278;53.058;9.028;2023-10-31T03:40:26;12.60;99.90
24103;DHT22;12278;53.058;9.028;2023-10-31T03:44:27;12.60;99.90
24103;DHT22;12278;53.058;9.028;2023-10-31T03:48:27;12.60;99.90
24103;DHT22;12278;53.058;9.028;2023-10-31T03:52:28;12.60;99.90
24103;DHT22;12278;53.058;9.028;2023-10-31T03:56:29;12.60;99.90
24103;DHT22;12278;53.058;9.028;2023-10-31T04:00:29;12.60;99.90
24103;DHT22;12278;53.058;9.028;2023-10-31T04:04:30;12.70;99.90
24103;DHT22;12278;53.058;9.028;2023-10-31T04:08:31;12.70;99.90
24103;DHT22;12278;53.058;9.028;2023-10-31T04:12:32;12.70;99.90
24103;DHT22;12278;53.058;9.028;2023-10-31T04:16:38;12.70;99.90
24103;DHT22;12278;53.058;9.028;2023-10-31T04:20:39;12.70;99.90
24103;DHT22;12278;53.058;9.028;2023-10-31T04:24:40;12.70;99.90
24103;DHT22;12278;53.058;9.028;2023-10-31T04:28:41;12.60;99.90
24103;DHT22;12278;53.058;9.028;2023-10-31T04:32:42;12.70;99.90
24103;DHT22;12278;53.058;9.028;2023-10-31T04:36:42;12.70;99.90
24103;DHT22;12278;53.058;9.028;2023-10-31T04:40:43;12.70;99.90
24103;DHT22;12278;53.058;9.028;2023-10-31T04:44:44;12.70;99.90
24103;DHT22;12278;53.058;9.028;2023-10-31T04:48:44;12.70;99.90
24103;DHT22;12278;53.058;9.028;2023-10-31T04:52:45;12.70;99.90
24103;DHT22;12278;53.058;9.028;2023-10-31T04:56:47;12.70;99.90
24103;DHT22;12278;53.058;9.028;2023-10-31T05:00:48;12.70;99.90
24103;DHT22;12278;53.058;9.028;2023-10-31T05:04:48;12.70;99.90
24103;DHT22;12278;53.058;9.028;2023-10-31T05:08:51;12.70;99.90
24103;DHT22;12278;53.058;9.028;2023-10-31T05:12:52;12.70;99.90
24103;DHT22;12278;53.058;9.028;2023-10-31T05:16:53;12.60;99.90
24103;DHT22;12278;53.058;9.028;2023-10-31T05:20:54;12.60;99.90
24103;DHT22;12278;53.058;9.028;2023-10-31T05:24:54;12.60;99.90
24103;DHT22;12278;53.058;9.028;2023-10-31T05:28:56;12.60;99.90
24103;DHT22;12278;53.058;9.028;2023-10-31T05:32:59;12.50;99.90
24103;DHT22;12278;53.058;9.028;2023-10-31T05:37:00;12.50;99.90
24103;DHT22;12278;53.058;9.028;2023-10-31T05:41:01;12.50;99.90
24103;DHT22;12278;53.058;9.028;2023-10-31T05:45:01;12.30;99.90
24103;DHT22;12278;53.058;9.028;2023-10-31T05:49:02;12.00;99.90
24103;DHT22;12278;53.058;9.028;2023-10-31T05:53:03;12.00;99.90
24103;DHT22;12278;53.058;9.028;2023-10-31T05:57:03;11.90;99.90
24103;DHT22;12278;53.058;9.028;2023-10-31T06:01:04;11.90;99.90
24103;DHT22;12278;53.058;9.028;2023-10-31T06:05:05;11.80;99.90
24103;DHT22;12278;53.058;9.028;2023-10-31T06:09:06;11.50;99.90
24103;DHT22;12278;53.058;9.028;2023-10-31T06:13:07;11.30;99.90
24103;DHT22;12278;53.058;9.028;2023-10-31T06:17:07;11.20;99.90
24103;DHT22;12278;53.058;9.028;2023-10-31T06:21:08;11.10;99.90
24103;DHT22;12278;53.058;9.028;2023-10-31T06:25:11;11.00;99.90
24103;DHT22;12278;53.058;9.028;2023-10-31T06:29:12;11.00;99.90
24103;DHT22;12278;53.058;9.028;2023-10-31T06:33:13;10.90;99.90
24103;DHT22;12278;53.058;9.028;2023-10-31T06:37:13;10.90;99.90
24103;DHT22;12278;53.058;9.028;2023-10-31T06:41:14;10.80;99.90
24103;DHT22;12278;53.058;9.028;2023-10-31T06:45:15;10.80;99.90
24103;DHT22;12278;53.058;9.028;2023-10-31T06:49:16;10.60;99.90
24103;DHT22;12278;53.058;9.028;2023-10-31T06:53:16;10.60;99.90
24103;DHT22;12278;53.058;9.028;2023-10-31T06:57:17;10.60;99.90
24103;DHT22;12278;53.058;9.028;2023-10-31T07:01:18;10.50;99.90
24103;DHT22;12278;53.058;9.028;2023-10-31T07:05:19;10.50;99.90
24103;DHT22;12278;53.058;9.028;2023-10-31T07:09:23;10.50;99.90
24103;DHT22;12278;53.058;9.028;2023-10-31T07:13:24;10.50;99.90
24103;DHT22;12278;53.058;9.028;2023-10-31T07:17:25;10.50;99.90
24103;DHT22;12278;53.058;9.028;2023-10-31T07:21:26;10.60;99.90
24103;DHT22;12278;53.058;9.028;2023-10-31T07:25:27;10.60;99.90
24103;DHT22;12278;53.058;9.028;2023-10-31T07:29:28;10.70;99.90
24103;DHT22;12278;53.058;9.028;2023-10-31T07:33:28;10.70;99.90
24103;DHT22;12278;53.058;9.028;2023-10-31T07:37:29;10.80;99.90
24103;DHT22;12278;53.058;9.028;2023-10-31T07:41:30;11.00;99.90
24103;DHT22;12278;53.058;9.028;2023-10-31T07:45:30;10.90;99.90
24103;DHT22;12278;53.058;9.028;2023-10-31T07:49:31;10.80;99.90
24103;DHT22;12278;53.058;9.028;2023-10-31T07:53:32;10.70;99.90
24103;DHT22;12278;53.058;9.028;2023-10-31T07:57:33;10.80;99.90
24103;DHT22;12278;53.058;9.028;2023-10-31T08:01:34;10.80;99.90
24103;DHT22;12278;53.058;9.028;2023-10-31T08:05:35;10.90;99.90
24103;DHT22;12278;53.058;9.028;2023-10-31T08:09:36;10.90;99.90
24103;DHT22;12278;53.058;9.028;2023-10-31T08:13:37;11.00;99.90
24103;DHT22;12278;53.058;9.028;2023-10-31T08:17:38;10.90;99.90
24103;DHT22;12278;53.058;9.028;2023-10-31T08:21:38;10.80;99.90
24103;DHT22;12278;53.058;9.028;2023-10-31T08:25:39;10.70;99.90
24103;DHT22;12278;53.058;9.028;2023-10-31T08:29:40;10.70;99.90
24103;DHT22;12278;53.058;9.028;2023-10-31T08:33:40;10.60;99.90
24103;DHT22;12278;53.058;9.028;2023-10-31T08:37:41;10.70;99.90
24103;DHT22;12278;53.058;9.028;2023-10-31T08:41:55;10.70;99.90
24103;DHT22;12278;53.058;9.028;2023-10-31T08:45:56;10.90;99.90
24103;DHT22;12278;53.058;9.028;2023-10-31T08:49:56;10.90;99.90
24103;DHT22;12278;53.058;9.028;2023-10-31T08:53:57;10.90;99.90
24103;DHT22;12278;53.058;9.028;2023-10-31T08:57:58;10.90;99.90
24103;DHT22;12278;53.058;9.028;2023-10-31T09:01:59;10.90;99.90
24103;DHT22;12278;53.058;9.028;2023-10-31T09:06:00;11.00;99.90
24103;DHT22;12278;53.058;9.028;2023-10-31T09:10:00;11.10;99.90
24103;DHT22;12278;53.058;9.028;2023-10-31T09:14:01;11.30;99.90
24103;DHT22;12278;53.058;9.028;2023-10-31T09:18:02;11.60;99.90
24103;DHT22;12278;53.058;9.028;2023-10-31T09:22:02;11.50;99.90
24103;DHT22;12278;53.058;9.028;2023-10-31T09:26:03;11.50;99.90
24103;DHT22;12278;53.058;9.028;2023-10-31T09:30:04;11.50;99.90
24103;DHT22;12278;53.058;9.028;2023-10-31T09:34:05;11.50;99.90
24103;DHT22;12278;53.058;9.028;2023-10-31T09:38:07;11.40;99.90
24103;DHT22;12278;53.058;9.028;2023-10-31T09:42:08;11.30;99.90
24103;DHT22;12278;53.058;9.028;2023-10-31T09:46:09;11.40;99.90
24103;DHT22;12278;53.058;9.028;2023-10-31T09:50:10;11.40;99.90
24103;DHT22;12278;53.058;9.028;2023-10-31T09:54:11;11.40;99.90
24103;DHT22;12278;53.058;9.028;2023-10-31T09:58:16;11.30;99.90
24103;DHT22;12278;53.058;9.028;2023-10-31T10:02:17;11.30;99.90
24103;DHT22;12278;53.058;9.028;2023-10-31T10:06:18;11.30;99.90
24103;DHT22;12278;53.058;9.028;2023-10-31T10:10:21;11.40;99.90
24103;DHT22;12278;53.058;9.028;2023-10-31T10:14:28;11.50;99.90
24103;DHT22;12278;53.058;9.028;2023-10-31T10:18:33;11.60;99.90
24103;DHT22;12278;53.058;9.028;2023-10-31T10:22:41;11.80;99.90
24103;DHT22;12278;53.058;9.028;2023-10-31T10:26:43;11.70;99.90
24103;DHT22;12278;53.058;9.028;2023-10-31T10:30:45;11.80;99.90
24103;DHT22;12278;53.058;9.028;2023-10-31T10:34:46;11.70;99.90
24103;DHT22;12278;53.058;9.028;2023-10-31T10:38:49;11.70;99.90
24103;DHT22;12278;53.058;9.028;2023-10-31T10:42:55;11.60;99.90
24103;DHT22;12278;53.058;9.028;2023-10-31T10:47:09;11.60;99.90
24103;DHT22;12278;53.058;9.028;2023-10-31T10:51:43;11.90;99.90
24103;DHT22;12278;53.058;9.028;2023-10-31T10:55:48;12.00;99.90
24103;DHT22;12278;53.058;9.028;2023-10-31T10:59:52;12.20;99.90
24103;DHT22;12278;53.058;9.028;2023-10-31T11:03:59;12.40;99.90
24103;DHT22;12278;53.058;9.028;2023-10-31T11:08:00;12.40;99.90
24103;DHT22;12278;53.058;9.028;2023-10-31T11:12:02;12.40;99.90
24103;DHT22;12278;53.058;9.028;2023-10-31T11:16:10;12.30;99.90
24103;DHT22;12278;53.058;9.028;2023-10-31T11:20:13;12.10;99.90
24103;DHT22;12278;53.058;9.028;2023-10-31T11:24:16;12.00;99.90
24103;DHT22;12278;53.058;9.028;2023-10-31T11:28:17;12.00;99.90
24103;DHT22;12278;53.058;9.028;2023-10-31T11:32:22;12.10;99.90
24103;DHT22;12278;53.058;9.028;2023-10-31T11:36:22;12.10;99.90
24103;DHT22;12278;53.058;9.028;2023-10-31T11:40:23;12.10;99.90
24103;DHT22;12278;53.058;9.028;2023-10-31T11:44:27;12.00;99.90
24103;DHT22;12278;53.058;9.028;2023-10-31T11:48:47;11.90;99.90
24103;DHT22;12278;53.058;9.028;2023-10-31T11:53:09;12.20;99.90
24103;DHT22;12278;53.058;9.028;2023-10-31T11:57:27;12.30;99.90
24103;DHT22;12278;53.058;9.028;2023-10-31T12:01:29;12.50;99.90
24103;DHT22;12278;53.058;9.028;2023-10-31T12:05:29;12.40;99.90
24103;DHT22;12278;53.058;9.028;2023-10-31T12:09:30;12.20;99.90
24103;DHT22;12278;53.058;9.028;2023-10-31T12:13:31;12.10;99.90
24103;DHT22;12278;53.058;9.028;2023-10-31T12:17:32;11.90;99.90
24103;DHT22;12278;53.058;9.028;2023-10-31T12:21:41;11.90;99.90
24103;DHT22;12278;53.058;9.028;2023-10-31T12:25:52;11.90;99.90
24103;DHT22;12278;53.058;9.028;2023-10-31T12:30:02;11.80;99.90
24103;DHT22;12278;53.058;9.028;2023-10-31T12:34:07;11.90;99.90
24103;DHT22;12278;53.058;9.028;2023-10-31T12:38:10;11.90;99.90
24103;DHT22;12278;53.058;9.028;2023-10-31T12:42:11;12.00;99.90
24103;DHT22;12278;53.058;9.028;2023-10-31T12:50:26;12.10;99.90
24103;DHT22;12278;53.058;9.028;2023-10-31T12:54:31;12.10;99.90
24103;DHT22;12278;53.058;9.028;2023-10-31T12:58:33;12.00;99.90
24103;DHT22;12278;53.058;9.028;2023-10-31T13:02:34;12.00;99.90
24103;DHT22;12278;53.058;9.028;2023-10-31T13:06:34;11.90;99.90
24103;DHT22;12278;53.058;9.028;2023-10-31T13:10:35;11.80;99.90
24103;DHT22;12278;53.058;9.028;2023-10-31T13:14:37;11.60;99.90
24103;DHT22;12278;53.058;9.028;2023-10-31T13:18:39;11.40;99.90
24103;DHT22;12278;53.058;9.028;2023-10-31T13:22:41;11.20;99.90
24103;DHT22;12278;53.058;9.028;2023-10-31T13:26:41;11.20;99.90
24103;DHT22;12278;53.058;9.028;2023-10-31T13:30:44;11.10;99.90
24103;DHT22;12278;53.058;9.028;2023-10-31T13:34:46;11.00;99.90
24103;DHT22;12278;53.058;9.028;2023-10-31T13:38:47;10.90;99.90
24103;DHT22;12278;53.058;9.028;2023-10-31T13:42:48;10.80;99.90
24103;DHT22;12278;53.058;9.028;2023-10-31T13:46:49;10.70;99.90
24103;DHT22;12278;53.058;9.028;2023-10-31T13:50:49;10.60;99.90
24103;DHT22;12278;53.058;9.028;2023-10-31T13:54:50;10.60;99.90
24103;DHT22;12278;53.058;9.028;2023-10-31T13:58:51;10.60;99.90
24103;DHT22;12278;53.058;9.028;2023-10-31T14:02:51;10.50;99.90
24103;DHT22;12278;53.058;9.028;2023-10-31T14:06:52;10.40;99.90
24103;DHT22;12278;53.058;9.028;2023-10-31T14:10:53;10.60;99.90
24103;DHT22;12278;53.058;9.028;2023-10-31T14:14:55;10.50;99.90
24103;DHT22;12278;53.058;9.028;2023-10-31T14:18:55;10.60;99.90
24103;DHT22;12278;53.058;9.028;2023-10-31T14:22:56;10.70;99.90
24103;DHT22;12278;53.058;9.028;2023-10-31T14:26:57;11.60;99.90
24103;DHT22;12278;53.058;9.028;2023-10-31T14:30:59;12.80;99.90
24103;DHT22;12278;53.058;9.028;2023-10-31T14:35:00;12.80;99.90
24103;DHT22;12278;53.058;9.028;2023-10-31T14:39:00;11.70;99.90
24103;DHT22;12278;53.058;9.028;2023-10-31T14:43:01;10.80;99.90
24103;DHT22;12278;53.058;9.028;2023-10-31T14:47:01;10.40;99.90
24103;DHT22;12278;53.058;9.028;2023-10-31T14:51:02;10.30;99.90
24103;DHT22;12278;53.058;9.028;2023-10-31T14:55:03;10.20;99.90
24103;DHT22;12278;53.058;9.028;2023-10-31T14:59:04;10.30;99.90
24103;DHT22;12278;53.058;9.028;2023-10-31T15:03:05;10.20;99.90
24103;DHT22;12278;53.058;9.028;2023-10-31T15:07:05;10.30;99.90
24103;DHT22;12278;53.058;9.028;2023-10-31T15:11:06;10.40;99.90
24103;DHT22;12278;53.058;9.028;2023-10-31T15:15:07;10.40;99.90
24103;DHT22;12278;53.058;9.028;2023-10-31T15:19:08;10.20;99.90
24103;DHT22;12278;53.058;9.028;2023-10-31T15:23:08;10.00;99.90
24103;DHT22;12278;53.058;9.028;2023-10-31T15:27:09;9.90;99.90
24103;DHT22;12278;53.058;9.028;2023-10-31T15:31:10;9.90;99.90
24103;DHT22;12278;53.058;9.028;2023-10-31T15:35:11;9.60;99.90
24103;DHT22;12278;53.058;9.028;2023-10-31T15:39:12;9.50;99.90
24103;DHT22;12278;53.058;9.028;2023-10-31T15:43:13;9.40;99.90
24103;DHT22;12278;53.058;9.028;2023-10-31T15:47:14;9.40;99.90
24103;DHT22;12278;53.058;9.028;2023-10-31T15:51:15;9.30;99.90
24103;DHT22;12278;53.058;9.028;2023-10-31T15:55:15;9.10;99.90
24103;DHT22;12278;53.058;9.028;2023-10-31T15:59:16;9.00;99.90
24103;DHT22;12278;53.058;9.028;2023-10-31T16:03:17;9.00;99.90
24103;DHT22;12278;53.058;9.028;2023-10-31T16:07:17;8.90;99.90
24103;DHT22;12278;53.058;9.028;2023-10-31T16:11:18;8.90;99.90
24103;DHT22;12278;53.058;9.028;2023-10-31T16:15:18;8.90;99.90
24103;DHT22;12278;53.058;9.028;2023-10-31T16:19:19;8.90;99.90
24103;DHT22;12278;53.058;9.028;2023-10-31T16:23:20;8.80;99.90
24103;DHT22;12278;53.058;9.028;2023-10-31T16:27:22;8.80;99.90
24103;DHT22;12278;53.058;9.028;2023-10-31T16:31:23;8.80;99.90
24103;DHT22;12278;53.058;9.028;2023-10-31T16:35:24;8.80;99.90
24103;DHT22;12278;53.058;9.028;2023-10-31T16:39:25;8.80;99.90
24103;DHT22;12278;53.058;9.028;2023-10-31T16:43:26;8.90;99.90
24103;DHT22;12278;53.058;9.028;2023-10-31T16:47:27;8.90;99.90
24103;DHT22;12278;53.058;9.028;2023-10-31T16:51:28;8.90;99.90
24103;DHT22;12278;53.058;9.028;2023-10-31T16:55:29;9.00;99.90
24103;DHT22;12278;53.058;9.028;2023-10-31T16:59:29;9.00;99.90
24103;DHT22;12278;53.058;9.028;2023-10-31T17:03:30;9.10;99.90
24103;DHT22;12278;53.058;9.028;2023-10-31T17:07:31;9.00;99.90
24103;DHT22;12278;53.058;9.028;2023-10-31T17:11:32;9.10;99.90
24103;DHT22;12278;53.058;9.028;2023-10-31T17:15:33;9.20;99.90
24103;DHT22;12278;53.058;9.028;2023-10-31T17:19:34;9.10;99.90
24103;DHT22;12278;53.058;9.028;2023-10-31T17:23:34;9.20;99.90
24103;DHT22;12278;53.058;9.028;2023-10-31T17:27:35;9.30;99.90
24103;DHT22;12278;53.058;9.028;2023-10-31T17:31:38;9.40;99.90
24103;DHT22;12278;53.058;9.028;2023-10-31T17:35:42;9.30;99.90
24103;DHT22;12278;53.058;9.028;2023-10-31T17:39:42;9.20;99.90
24103;DHT22;12278;53.058;9.028;2023-10-31T17:43:43;9.40;99.90
24103;DHT22;12278;53.058;9.028;2023-10-31T17:47:44;9.50;99.90
24103;DHT22;12278;53.058;9.028;2023-10-31T17:51:44;9.40;99.90
24103;DHT22;12278;53.058;9.028;2023-10-31T17:55:46;9.50;99.90
24103;DHT22;12278;53.058;9.028;2023-10-31T17:59:51;9.50;99.90
24103;DHT22;12278;53.058;9.028;2023-10-31T18:03:55;9.50;99.90
24103;DHT22;12278;53.058;9.028;2023-10-31T18:07:55;9.60;99.90
24103;DHT22;12278;53.058;9.028;2023-10-31T18:11:56;9.60;99.90
24103;DHT22;12278;53.058;9.028;2023-10-31T18:15:57;9.50;99.90
24103;DHT22;12278;53.058;9.028;2023-10-31T18:19:57;9.50;99.90
24103;DHT22;12278;53.058;9.028;2023-10-31T18:23:58;9.60;99.90
24103;DHT22;12278;53.058;9.028;2023-10-31T18:27:59;9.60;99.90
24103;DHT22;12278;53.058;9.028;2023-10-31T18:32:04;9.60;99.90
24103;DHT22;12278;53.058;9.028;2023-10-31T18:36:14;9.60;99.90
24103;DHT22;12278;53.058;9.028;2023-10-31T18:40:17;9.60;99.90
24103;DHT22;12278;53.058;9.028;2023-10-31T18:44:29;9.40;99.90
24103;DHT22;12278;53.058;9.028;2023-10-31T18:48:31;9.30;99.90
24103;DHT22;12278;53.058;9.028;2023-10-31T18:52:32;9.20;99.90
24103;DHT22;12278;53.058;9.028;2023-10-31T18:56:32;9.20;99.90
24103;DHT22;12278;53.058;9.028;2023-10-31T19:00:33;9.20;99.90
24103;DHT22;12278;53.058;9.028;2023-10-31T19:04:38;9.30;99.90
24103;DHT22;12278;53.058;9.028;2023-10-31T19:08:43;9.10;99.90
24103;DHT22;12278;53.058;9.028;2023-10-31T19:12:45;9.00;99.90
24103;DHT22;12278;53.058;9.028;2023-10-31T19:16:46;8.90;99.90
24103;DHT22;12278;53.058;9.028;2023-10-31T19:20:46;8.90;99.90
24103;DHT22;12278;53.058;9.028;2023-10-31T19:24:47;8.90;99.90
24103;DHT22;12278;53.058;9.028;2023-10-31T19:28:48;9.00;99.90
24103;DHT22;12278;53.058;9.028;2023-10-31T19:32:49;9.00;99.90
24103;DHT22;12278;53.058;9.028;2023-10-31T19:36:50;9.10;99.90
24103;DHT22;12278;53.058;9.028;2023-10-31T19:40:51;9.10;99.90
24103;DHT22;12278;53.058;9.028;2023-10-31T19:44:51;9.10;99.90
24103;DHT22;12278;53.058;9.028;2023-10-31T19:48:52;9.10;99.90
24103;DHT22;12278;53.058;9.028;2023-10-31T19:52:55;9.20;99.90
24103;DHT22;12278;53.058;9.028;2023-10-31T19:56:56;9.30;99.90
24103;DHT22;12278;53.058;9.028;2023-10-31T20:00:57;9.30;99.90
24103;DHT22;12278;53.058;9.028;2023-10-31T20:04:57;9.30;99.90
24103;DHT22;12278;53.058;9.028;2023-10-31T20:08:58;9.30;99.90
24103;DHT22;12278;53.058;9.028;2023-10-31T20:12:59;9.30;99.90
24103;DHT22;12278;53.058;9.028;2023-10-31T20:16:59;9.30;99.90
24103;DHT22;12278;53.058;9.028;2023-10-31T20:21:06;9.40;99.90
24103;DHT22;12278;53.058;9.028;2023-10-31T20:25:10;9.30;99.90
24103;DHT22;12278;53.058;9.028;2023-10-31T20:29:11;9.30;99.90
24103;DHT22;12278;53.058;9.028;2023-10-31T20:33:11;9.30;99.90
24103;DHT22;12278;53.058;9.028;2023-10-31T20:37:12;9.30;99.90
24103;DHT22;12278;53.058;9.028;2023-10-31T20:41:13;9.30;99.90
24103;DHT22;12278;53.058;9.028;2023-10-31T20:45:14;9.30;99.90
24103;DHT22;12278;53.058;9.028;2023-10-31T20:49:14;9.30;99.90
24103;DHT22;12278;53.058;9.028;2023-10-31T20:53:15;9.20;99.90
24103;DHT22;12278;53.058;9.028;2023-10-31T20:57:16;9.10;99.90
24103;DHT22;12278;53.058;9.028;2023-10-31T21:01:16;9.10;99.90
24103;DHT22;12278;53.058;9.028;2023-10-31T21:05:17;9.10;99.90
24103;DHT22;12278;53.058;9.028;2023-10-31T21:09:17;9.10;99.90
24103;DHT22;12278;53.058;9.028;2023-10-31T21:13:18;9.10;99.90
24103;DHT22;12278;53.058;9.028;2023-10-31T21:17:19;9.00;99.90
24103;DHT22;12278;53.058;9.028;2023-10-31T21:21:21;9.00;99.90
24103;DHT22;12278;53.058;9.028;2023-10-31T21:25:23;9.00;99.90
24103;DHT22;12278;53.058;9.028;2023-10-31T21:29:25;9.00;99.90
24103;DHT22;12278;53.058;9.028;2023-10-31T21:33:26;9.00;99.90
24103;DHT22;12278;53.058;9.028;2023-10-31T21:37:26;9.00;99.90
24103;DHT22;12278;53.058;9.028;2023-10-31T21:41:27;9.00;99.90
24103;DHT22;12278;53.058;9.028;2023-10-31T21:45:29;8.90;99.90
24103;DHT22;12278;53.058;9.028;2023-10-31T21:49:29;9.00;99.90
24103;DHT22;12278;53.058;9.028;2023-10-31T21:53:30;8.90;99.90
24103;DHT22;12278;53.058;9.028;2023-10-31T21:57:31;9.00;99.90
24103;DHT22;12278;53.058;9.028;2023-10-31T22:01:32;8.90;99.90
24103;DHT22;12278;53.058;9.028;2023-10-31T22:05:32;9.00;99.90
24103;DHT22;12278;53.058;9.028;2023-10-31T22:09:33;8.90;99.90
24103;DHT22;12278;53.058;9.028;2023-10-31T22:13:34;9.00;99.90
24103;DHT22;12278;53.058;9.028;2023-10-31T22:17:34;8.90;99.90
24103;DHT22;12278;53.058;9.028;2023-10-31T22:21:35;8.90;99.90
24103;DHT22;12278;53.058;9.028;2023-10-31T22:25:35;8.90;99.90
24103;DHT22;12278;53.058;9.028;2023-10-31T22:29:36;8.70;99.90
24103;DHT22;12278;53.058;9.028;2023-10-31T22:33:39;8.80;99.90
24103;DHT22;12278;53.058;9.028;2023-10-31T22:37:39;8.80;99.90
24103;DHT22;12278;53.058;9.028;2023-10-31T22:41:41;8.70;99.90
24103;DHT22;12278;53.058;9.028;2023-10-31T22:45:42;8.60;99.90
24103;DHT22;12278;53.058;9.028;2023-10-31T22:49:43;8.70;99.90
24103;DHT22;12278;53.058;9.028;2023-10-31T22:53:43;8.70;99.90
24103;DHT22;12278;53.058;9.028;2023-10-31T22:57:44;8.70;99.90
24103;DHT22;12278;53.058;9.028;2023-10-31T23:01:48;8.80;99.90
24103;DHT22;12278;53.058;9.028;2023-10-31T23:05:48;8.80;99.90
24103;DHT22;12278;53.058;9.028;2023-10-31T23:09:49;8.80;99.90
24103;DHT22;12278;53.058;9.028;2023-10-31T23:13:50;8.70;99.90
24103;DHT22;12278;53.058;9.028;2023-10-31T23:17:50;8.80;99.90
24103;DHT22;12278;53.058;9.028;2023-10-31T23:21:53;8.80;99.90
24103;DHT22;12278;53.058;9.028;2023-10-31T23:25:55;8.70;99.90
24103;DHT22;12278;53.058;9.028;2023-10-31T23:29:55;8.80;99.90
24103;DHT22;12278;53.058;9.028;2023-10-31T23:33:57;8.80;99.90
24103;DHT22;12278;53.058;9.028;2023-10-31T23:37:57;8.90;99.90
24103;DHT22;12278;53.058;9.028;2023-10-31T23:41:58;8.90;99.90
24103;DHT22;12278;53.058;9.028;2023-10-31T23:45:58;8.90;99.90
24103;DHT22;12278;53.058;9.028;2023-10-31T23:49:59;8.90;99.90
24103;DHT22;12278;53.058;9.028;2023-10-31T23:54:00;8.90;99.90
24103;DHT22;12278;53.058;9.028;2023-10-31T23:58:01;8.90;99.90
